Time;durP1;ratioP1;P1;durP2;ratioP2;P2;SDS_P1;SDS_P2;PMS_P1;PMS_P2;Temp;Humidity;BMP_temperature;BMP_pressure;BME280_temperature;BME280_humidity;BME280_pressure;Samples;Min_cycle;Max_cycle;Signal;HPM_P1;HPM_P2
2022/08/15 00:00:42;;;;;;;6.60;5.97;;;23.60;98.60;;;;;;2075641;28;20024;-70
2022/08/15 00:01:43;;;;;;;6.78;6.15;;;23.60;98.50;;;;;;2072032;28;20045;-70
2022/08/15 00:02:47;;;;;;;6.07;5.50;;;23.60;98.30;;;;;;2073959;28;20018;-70
2022/08/15 00:03:51;;;;;;;6.53;5.88;;;23.60;98.60;;;;;;2072699;28;20049;-70
2022/08/15 00:04:52;;;;;;;6.60;5.93;;;23.60;98.60;;;;;;2068626;28;20084;-70
2022/08/15 00:05:54;;;;;;;7.78;6.38;;;23.60;98.40;;;;;;2073765;28;20021;-70
2022/08/15 00:06:54;;;;;;;6.30;5.78;;;23.60;97.90;;;;;;2071947;28;20401;-71
2022/08/15 00:07:55;;;;;;;7.28;6.25;;;23.70;97.60;;;;;;2072719;28;20022;-71
2022/08/15 00:08:58;;;;;;;7.30;6.70;;;23.60;97.90;;;;;;2074074;28;20029;-71
2022/08/15 00:09:58;;;;;;;7.10;6.10;;;23.70;97.50;;;;;;2071905;28;20029;-71
2022/08/15 00:11:11;;;;;;;6.72;6.03;;;23.70;97.40;;;;;;2072162;28;20026;-71
2022/08/15 00:12:12;;;;;;;6.70;6.20;;;23.70;97.50;;;;;;2071433;28;20097;-71
2022/08/15 00:13:21;;;;;;;7.20;6.13;;;23.70;97.70;;;;;;2072148;28;20040;-71
2022/08/15 00:14:26;;;;;;;7.60;6.53;;;23.70;97.40;;;;;;2070609;28;20018;-71
2022/08/15 00:15:27;;;;;;;6.65;6.03;;;23.70;97.50;;;;;;2071844;28;20113;-71
2022/08/15 00:16:32;;;;;;;7.38;5.78;;;23.80;97.80;;;;;;2073206;28;20478;-71
2022/08/15 00:17:34;;;;;;;7.93;6.72;;;23.80;97.80;;;;;;2072081;28;20032;-71
2022/08/15 00:18:35;;;;;;;6.82;6.07;;;23.70;97.60;;;;;;2072149;28;20520;-71
2022/08/15 00:19:39;;;;;;;6.72;6.10;;;23.80;97.10;;;;;;2072320;28;20497;-71
2022/08/15 00:20:41;;;;;;;7.72;6.47;;;23.80;97.30;;;;;;2072757;28;20022;-71
2022/08/15 00:21:46;;;;;;;6.90;6.30;;;23.80;96.50;;;;;;2072575;28;20037;-71
2022/08/15 00:22:49;;;;;;;7.28;6.55;;;23.80;96.30;;;;;;2071942;28;20118;-71
2022/08/15 00:23:50;;;;;;;6.88;6.22;;;23.80;96.10;;;;;;2073080;28;20022;-71
2022/08/15 00:24:51;;;;;;;7.38;6.70;;;23.80;95.80;;;;;;2073640;28;20044;-71
2022/08/15 00:25:55;;;;;;;7.78;6.97;;;23.90;95.60;;;;;;2071588;28;20101;-71
2022/08/15 00:26:58;;;;;;;8.15;6.45;;;23.90;95.40;;;;;;2073678;28;20099;-71
2022/08/15 00:27:59;;;;;;;8.02;6.18;;;23.90;95.10;;;;;;2073485;28;20099;-71
2022/08/15 00:29:00;;;;;;;7.57;6.82;;;23.90;94.90;;;;;;2072600;28;20064;-71
2022/08/15 00:30:03;;;;;;;7.35;6.20;;;24.00;94.90;;;;;;2072650;28;20030;-71
2022/08/15 00:31:05;;;;;;;7.28;6.57;;;24.00;94.60;;;;;;2071863;28;20437;-71
2022/08/15 00:32:13;;;;;;;7.10;6.40;;;24.00;94.40;;;;;;2071840;28;20080;-71
2022/08/15 00:33:15;;;;;;;7.05;6.45;;;24.10;94.10;;;;;;2087496;28;20056;-71
2022/08/15 00:34:17;;;;;;;7.63;6.13;;;24.10;94.10;;;;;;2085738;28;20118;-71
2022/08/15 00:35:36;;;;;;;7.22;6.53;;;24.10;93.70;;;;;;2074369;28;20076;-71
2022/08/15 00:36:36;;;;;;;8.00;7.20;;;24.10;93.60;;;;;;2073484;28;20128;-71
2022/08/15 00:37:37;;;;;;;7.22;6.63;;;24.10;93.50;;;;;;2072047;28;20022;-71
2022/08/15 00:38:38;;;;;;;7.05;6.40;;;24.20;93.50;;;;;;2071886;28;20033;-71
2022/08/15 00:39:39;;;;;;;6.53;5.97;;;24.20;93.40;;;;;;2071750;28;20111;-71
2022/08/15 00:42:11;;;;;;;6.78;6.18;;;24.20;93.30;;;;;;2072426;28;20037;-71
2022/08/15 00:43:15;;;;;;;6.75;5.97;;;24.30;94.00;;;;;;2076056;28;20018;-71
2022/08/15 00:44:29;;;;;;;10.40;6.45;;;24.20;94.20;;;;;;2071449;28;20026;-71
2022/08/15 00:45:30;;;;;;;8.75;6.55;;;24.20;94.70;;;;;;2071052;28;20022;-71
2022/08/15 00:46:30;;;;;;;7.15;6.43;;;24.30;94.60;;;;;;2071720;28;20054;-71
2022/08/15 00:47:31;;;;;;;6.60;6.03;;;24.30;93.60;;;;;;2070960;28;20022;-71
2022/08/15 00:48:44;;;;;;;7.05;6.40;;;24.20;93.50;;;;;;2074498;28;20026;-71
2022/08/15 00:49:46;;;;;;;7.10;6.43;;;24.30;93.80;;;;;;2074285;28;20461;-71
2022/08/15 00:50:46;;;;;;;7.15;6.45;;;24.20;94.00;;;;;;2075990;28;20052;-71
2022/08/15 00:51:54;;;;;;;7.20;6.28;;;24.30;93.90;;;;;;2075536;28;20034;-71
2022/08/15 00:52:55;;;;;;;7.50;5.75;;;24.30;94.60;;;;;;2072887;28;20409;-71
2022/08/15 00:54:19;;;;;;;7.72;6.90;;;24.30;94.60;;;;;;2072167;28;20033;-71
2022/08/15 00:55:23;;;;;;;6.80;6.20;;;24.30;94.50;;;;;;2073999;28;20109;-71
2022/08/15 00:56:30;;;;;;;7.25;6.60;;;24.30;94.50;;;;;;2074192;28;20091;-71
2022/08/15 00:57:43;;;;;;;7.60;6.30;;;24.30;94.90;;;;;;2076293;28;20362;-71
2022/08/15 00:58:45;;;;;;;7.63;6.60;;;24.30;94.70;;;;;;2073990;28;20069;-71
2022/08/15 00:59:52;;;;;;;8.32;6.72;;;24.20;94.50;;;;;;2076320;28;20026;-71
2022/08/15 01:00:53;;;;;;;8.05;7.00;;;24.20;94.10;;;;;;2075155;28;20025;-71
2022/08/15 01:01:56;;;;;;;7.43;6.38;;;24.20;93.80;;;;;;2071990;28;20049;-71
2022/08/15 01:03:00;;;;;;;6.72;6.13;;;24.20;93.60;;;;;;2074836;28;20381;-71
2022/08/15 01:04:00;;;;;;;7.65;6.03;;;24.20;93.20;;;;;;2074454;28;20022;-71
2022/08/15 01:05:04;;;;;;;7.15;6.55;;;24.20;93.10;;;;;;2073989;28;20026;-71
2022/08/15 01:06:05;;;;;;;6.88;6.28;;;24.20;93.10;;;;;;2074872;28;20108;-71
2022/08/15 01:07:07;;;;;;;7.13;6.40;;;24.30;93.00;;;;;;2073988;28;20022;-71
2022/08/15 01:08:08;;;;;;;8.55;7.10;;;24.30;93.00;;;;;;2073973;28;20018;-71
2022/08/15 01:09:09;;;;;;;7.15;6.50;;;24.20;92.90;;;;;;2074815;28;20075;-71
2022/08/15 01:10:11;;;;;;;6.75;6.15;;;24.30;92.90;;;;;;2072822;28;20018;-71
2022/08/15 01:11:19;;;;;;;8.02;6.22;;;24.20;92.70;;;;;;2073820;28;20026;-71
2022/08/15 01:12:23;;;;;;;6.60;5.78;;;24.30;92.60;;;;;;2072095;28;20385;-71
2022/08/15 01:13:24;;;;;;;7.95;6.15;;;24.30;92.60;;;;;;2071844;28;20018;-71
2022/08/15 01:14:25;;;;;;;8.05;5.97;;;24.30;92.50;;;;;;2073688;28;20017;-71
2022/08/15 01:15:25;;;;;;;6.68;6.07;;;24.30;92.60;;;;;;2076372;28;20061;-71
2022/08/15 01:16:28;;;;;;;6.65;6.05;;;24.30;93.50;;;;;;2074172;28;20118;-71
2022/08/15 01:17:30;;;;;;;7.15;6.55;;;24.30;93.90;;;;;;2069994;28;20057;-71
2022/08/15 01:18:31;;;;;;;7.35;6.32;;;24.30;94.00;;;;;;2074525;28;20577;-71
2022/08/15 01:19:40;;;;;;;6.68;6.07;;;24.30;94.10;;;;;;2072792;28;20048;-71
2022/08/15 01:20:43;;;;;;;7.70;6.43;;;24.30;94.30;;;;;;2072724;28;20547;-71
2022/08/15 01:22:03;;;;;;;6.25;5.65;;;24.30;94.00;;;;;;2073300;28;20432;-71
2022/08/15 01:23:26;;;;;;;6.45;5.95;;;24.30;93.60;;;;;;2046543;28;20027;-71
2022/08/15 01:25:11;;;;;;;7.72;6.25;;;24.30;92.60;;;;;;2077143;28;20113;-71
2022/08/15 01:26:14;;;;;;;6.82;6.22;;;24.30;92.50;;;;;;2069596;28;20048;-71
2022/08/15 01:27:16;;;;;;;7.50;6.03;;;24.30;93.00;;;;;;2072802;28;20477;-71
2022/08/15 01:28:42;;;;;;;6.68;6.07;;;24.30;93.60;;;;;;2071905;28;20550;-71
2022/08/15 01:29:43;;;;;;;6.43;5.93;;;24.30;93.40;;;;;;2068639;28;20069;-71
2022/08/15 01:30:55;;;;;;;7.30;6.63;;;24.30;93.30;;;;;;2075667;28;20072;-71
2022/08/15 01:31:56;;;;;;;6.90;6.28;;;24.30;92.60;;;;;;2075388;28;20020;-71
2022/08/15 01:32:58;;;;;;;7.07;6.25;;;24.30;92.60;;;;;;2075323;28;20033;-71
2022/08/15 01:34:00;;;;;;;5.97;5.47;;;24.30;92.40;;;;;;2074879;28;20036;-71
2022/08/15 01:35:03;;;;;;;6.35;5.70;;;24.30;92.40;;;;;;2075746;28;20017;-71
2022/08/15 01:36:04;;;;;;;7.68;5.85;;;24.30;92.70;;;;;;2071962;28;20017;-71
2022/08/15 01:37:05;;;;;;;6.43;5.88;;;24.30;92.70;;;;;;2072711;28;20026;-71
2022/08/15 01:38:19;;;;;;;6.60;6.00;;;24.30;92.60;;;;;;2074160;28;20029;-71
2022/08/15 01:39:38;;;;;;;6.90;6.32;;;24.40;92.80;;;;;;2073549;28;20029;-71
2022/08/15 01:40:59;;;;;;;8.75;6.07;;;24.30;92.80;;;;;;2073950;28;20025;-71
2022/08/15 01:42:13;;;;;;;9.90;6.68;;;24.30;93.40;;;;;;2074693;28;20018;-71
2022/08/15 01:43:22;;;;;;;8.32;6.43;;;24.40;93.70;;;;;;2072142;28;20021;-71
2022/08/15 01:44:30;;;;;;;7.15;6.50;;;24.40;93.50;;;;;;2070134;28;20122;-71
2022/08/15 01:45:32;;;;;;;7.88;6.47;;;24.40;93.50;;;;;;2075743;28;20018;-71
2022/08/15 01:46:38;;;;;;;7.20;6.50;;;24.40;93.50;;;;;;2074467;28;20037;-71
2022/08/15 01:47:52;;;;;;;6.60;6.00;;;24.40;93.40;;;;;;2072755;28;20026;-71
2022/08/15 01:49:05;;;;;;;8.35;5.93;;;24.40;93.10;;;;;;2075847;28;20017;-70
2022/08/15 01:50:17;;;;;;;7.03;5.88;;;24.40;92.80;;;;;;2072859;28;20585;-70
2022/08/15 01:51:18;;;;;;;7.15;6.40;;;24.40;92.70;;;;;;2072646;28;20437;-70
2022/08/15 01:52:21;;;;;;;6.97;6.28;;;24.40;92.90;;;;;;2075960;28;20358;-70
2022/08/15 01:53:38;;;;;;;10.57;6.43;;;24.40;92.90;;;;;;2072579;28;20391;-70
2022/08/15 01:54:41;;;;;;;7.00;6.38;;;24.40;92.70;;;;;;2074714;28;20112;-71
2022/08/15 01:56:05;;;;;;;7.22;6.50;;;24.40;92.90;;;;;;2073402;28;20029;-71
2022/08/15 01:57:07;;;;;;;7.03;6.43;;;24.40;92.90;;;;;;2072435;28;20072;-71
2022/08/15 01:58:07;;;;;;;7.55;6.15;;;24.40;93.20;;;;;;2071684;28;20079;-71
2022/08/15 01:59:13;;;;;;;7.88;7.00;;;24.40;93.60;;;;;;2074094;28;20493;-71
2022/08/15 02:00:17;;;;;;;6.70;6.10;;;24.40;93.80;;;;;;2077888;28;20049;-71
2022/08/15 02:01:34;;;;;;;6.80;6.18;;;24.40;93.60;;;;;;2073736;28;20125;-71
2022/08/15 02:02:35;;;;;;;6.45;5.88;;;24.40;93.80;;;;;;2073660;28;20052;-71
2022/08/15 02:03:38;;;;;;;7.45;6.75;;;24.40;93.90;;;;;;2073938;28;20409;-71
2022/08/15 02:04:40;;;;;;;6.65;5.97;;;24.40;94.40;;;;;;2073934;28;20404;-71
2022/08/15 02:05:41;;;;;;;6.68;6.15;;;24.40;94.10;;;;;;2072496;28;20018;-71
2022/08/15 02:06:44;;;;;;;6.82;6.13;;;24.40;95.40;;;;;;2077082;28;20492;-71
2022/08/15 02:07:44;;;;;;;6.47;5.97;;;24.40;95.50;;;;;;2077332;28;20095;-71
2022/08/15 02:08:45;;;;;;;7.10;6.43;;;24.40;95.10;;;;;;2071975;28;20029;-71
2022/08/15 02:09:48;;;;;;;6.50;5.82;;;24.40;95.70;;;;;;2072300;28;20022;-71
2022/08/15 02:10:48;;;;;;;6.45;5.90;;;24.50;95.80;;;;;;2072954;28;20489;-71
2022/08/15 02:11:50;;;;;;;6.72;6.22;;;24.40;94.20;;;;;;2073249;28;20385;-71
2022/08/15 02:12:51;;;;;;;6.45;5.88;;;24.40;95.10;;;;;;2073034;28;20018;-71
2022/08/15 02:13:54;;;;;;;8.40;6.32;;;24.40;95.40;;;;;;2072964;28;20025;-71
2022/08/15 02:14:56;;;;;;;7.22;6.63;;;24.40;94.70;;;;;;2075969;28;20048;-71
2022/08/15 02:15:56;;;;;;;6.78;6.18;;;24.40;94.20;;;;;;2071894;28;20978;-71
2022/08/15 02:16:57;;;;;;;6.38;5.88;;;24.40;94.00;;;;;;2074668;28;20374;-71
2022/08/15 02:17:57;;;;;;;7.05;6.45;;;24.40;94.00;;;;;;2075387;28;20049;-71
2022/08/15 02:18:59;;;;;;;7.28;6.68;;;24.40;94.20;;;;;;2073708;28;20026;-71
2022/08/15 02:20:00;;;;;;;7.13;6.53;;;24.30;93.60;;;;;;2075095;28;20026;-71
2022/08/15 02:21:01;;;;;;;7.78;6.82;;;24.30;94.00;;;;;;2074995;28;20025;-71
2022/08/15 02:22:03;;;;;;;7.15;6.55;;;24.30;93.70;;;;;;2071768;28;20022;-71
2022/08/15 02:23:05;;;;;;;7.15;6.55;;;24.30;93.60;;;;;;2073624;28;20052;-71
2022/08/15 02:24:14;;;;;;;7.65;6.97;;;24.30;94.20;;;;;;2072426;28;20373;-71
2022/08/15 02:25:14;;;;;;;7.60;6.90;;;24.30;93.50;;;;;;2071167;28;20377;-71
2022/08/15 02:26:15;;;;;;;7.68;7.07;;;24.30;95.00;;;;;;2077225;28;20049;-71
2022/08/15 02:27:16;;;;;;;7.55;6.82;;;24.30;94.80;;;;;;2072173;28;20413;-71
2022/08/15 02:28:18;;;;;;;9.65;6.53;;;24.30;94.60;;;;;;2071821;28;20436;-71
2022/08/15 02:29:25;;;;;;;8.10;7.30;;;24.30;94.20;;;;;;2073396;28;20056;-71
2022/08/15 02:30:28;;;;;;;8.00;7.00;;;24.20;94.40;;;;;;2072817;28;20111;-71
2022/08/15 02:31:31;;;;;;;7.70;6.78;;;24.20;93.50;;;;;;2072925;28;20101;-71
2022/08/15 02:32:31;;;;;;;8.38;7.22;;;24.20;94.70;;;;;;2072291;28;20026;-71
2022/08/15 02:33:32;;;;;;;7.68;6.97;;;24.20;94.30;;;;;;2071911;28;20029;-71
2022/08/15 02:34:34;;;;;;;7.05;6.40;;;24.20;94.90;;;;;;2074027;28;20273;-71
2022/08/15 02:35:35;;;;;;;7.45;6.60;;;24.20;94.00;;;;;;2072499;28;20516;-71
2022/08/15 02:36:37;;;;;;;7.47;6.70;;;24.10;94.60;;;;;;2073106;28;20844;-71
2022/08/15 02:37:40;;;;;;;7.47;6.78;;;24.10;95.60;;;;;;2073617;28;20018;-71
2022/08/15 02:38:40;;;;;;;7.07;6.47;;;24.10;95.10;;;;;;2074135;28;20108;-71
2022/08/15 02:39:41;;;;;;;9.13;6.40;;;24.10;94.80;;;;;;2071747;28;20021;-71
2022/08/15 02:40:41;;;;;;;7.45;6.78;;;24.10;94.30;;;;;;2075499;28;20022;-71
2022/08/15 02:41:50;;;;;;;7.18;6.45;;;24.10;94.90;;;;;;2073085;28;20022;-71
2022/08/15 02:42:50;;;;;;;7.50;6.80;;;24.10;95.80;;;;;;2073887;28;20033;-71
2022/08/15 02:43:51;;;;;;;7.88;7.18;;;24.10;96.10;;;;;;2075519;28;20033;-71
2022/08/15 02:44:52;;;;;;;7.85;6.85;;;24.10;95.20;;;;;;2071234;28;20034;-71
2022/08/15 02:45:53;;;;;;;8.48;6.68;;;24.00;95.70;;;;;;2073055;28;20104;-71
2022/08/15 02:46:54;;;;;;;9.70;7.00;;;24.00;95.90;;;;;;2071191;28;20025;-71
2022/08/15 02:47:55;;;;;;;7.07;6.47;;;24.00;96.70;;;;;;2072934;28;20029;-71
2022/08/15 02:49:01;;;;;;;7.28;6.57;;;24.00;96.20;;;;;;2072090;28;20025;-71
2022/08/15 02:50:02;;;;;;;7.40;6.78;;;24.00;97.20;;;;;;2071390;28;20208;-71
2022/08/15 02:51:07;;;;;;;8.05;6.95;;;24.00;96.80;;;;;;2070846;28;20083;-71
2022/08/15 02:52:08;;;;;;;6.97;6.38;;;23.90;96.50;;;;;;2073311;28;20104;-71
2022/08/15 02:53:14;;;;;;;7.72;6.57;;;23.90;95.60;;;;;;2074646;28;20420;-71
2022/08/15 02:54:18;;;;;;;7.57;6.70;;;23.90;96.40;;;;;;2075685;28;20547;-71
2022/08/15 02:55:19;;;;;;;7.07;6.47;;;23.90;96.30;;;;;;2072658;28;20028;-71
2022/08/15 02:56:23;;;;;;;7.18;6.47;;;23.90;95.80;;;;;;2073715;28;20026;-71
2022/08/15 02:57:24;;;;;;;7.22;6.63;;;23.80;95.10;;;;;;2074926;28;20632;-71
2022/08/15 02:58:25;;;;;;;7.60;6.90;;;23.90;96.00;;;;;;2071898;28;20385;-71
2022/08/15 02:59:25;;;;;;;7.35;6.72;;;23.80;96.80;;;;;;2072343;28;20029;-71
2022/08/15 03:00:27;;;;;;;7.50;6.68;;;23.80;97.80;;;;;;2074184;28;20022;-71
2022/08/15 03:01:29;;;;;;;7.55;6.95;;;23.80;96.30;;;;;;2074259;28;20083;-71
2022/08/15 03:02:30;;;;;;;7.13;6.55;;;23.80;96.60;;;;;;2072837;28;20030;-71
2022/08/15 03:03:31;;;;;;;6.60;6.10;;;23.80;96.90;;;;;;2071932;28;20113;-71
2022/08/15 03:04:34;;;;;;;7.30;6.60;;;23.80;97.00;;;;;;2073931;28;20022;-71
2022/08/15 03:05:38;;;;;;;6.95;6.13;;;23.80;97.50;;;;;;2072670;28;20022;-71
2022/08/15 03:06:39;;;;;;;6.95;6.43;;;23.80;96.70;;;;;;2072713;28;20057;-71
2022/08/15 03:07:44;;;;;;;7.45;6.85;;;23.70;97.60;;;;;;2071718;28;20034;-71
2022/08/15 03:08:45;;;;;;;7.63;7.03;;;23.70;98.10;;;;;;2072513;28;20030;-71
2022/08/15 03:09:46;;;;;;;8.18;6.78;;;23.70;97.40;;;;;;2089147;28;21404;-71
2022/08/15 03:10:47;;;;;;;7.82;6.80;;;23.70;97.40;;;;;;2083589;28;20033;-71
2022/08/15 03:11:48;;;;;;;7.88;7.10;;;23.70;96.80;;;;;;2072413;28;20076;-71
2022/08/15 03:12:53;;;;;;;7.57;6.82;;;23.60;96.70;;;;;;2071465;28;20108;-71
2022/08/15 03:13:54;;;;;;;7.18;6.32;;;23.60;97.50;;;;;;2072861;28;20026;-71
2022/08/15 03:14:56;;;;;;;10.15;7.35;;;23.60;97.40;;;;;;2072089;28;20112;-71
2022/08/15 03:15:57;;;;;;;7.70;6.20;;;23.60;98.20;;;;;;2072840;28;20021;-71
2022/08/15 03:16:59;;;;;;;6.88;6.28;;;23.60;97.80;;;;;;2071870;28;20042;-71
2022/08/15 03:18:01;;;;;;;7.22;6.60;;;23.50;97.60;;;;;;2075396;28;20050;-71
2022/08/15 03:19:02;;;;;;;7.93;7.13;;;23.50;98.50;;;;;;2075978;28;20068;-71
2022/08/15 03:20:05;;;;;;;7.65;6.95;;;23.60;97.90;;;;;;2072962;28;20022;-71
2022/08/15 03:21:10;;;;;;;6.97;6.38;;;23.50;97.20;;;;;;2072788;28;20084;-72
2022/08/15 03:22:10;;;;;;;7.20;6.55;;;23.50;98.40;;;;;;2073990;28;20501;-71
2022/08/15 03:23:12;;;;;;;7.63;6.85;;;23.50;98.00;;;;;;2071570;28;20409;-71
2022/08/15 03:24:13;;;;;;;6.00;5.50;;;23.50;97.50;;;;;;2072637;28;20022;-71
2022/08/15 03:25:16;;;;;;;7.95;7.25;;;23.50;96.80;;;;;;2073756;28;20054;-71
2022/08/15 03:26:20;;;;;;;7.05;5.93;;;23.50;97.20;;;;;;2072598;28;20033;-71
2022/08/15 03:27:21;;;;;;;6.68;6.00;;;23.50;97.30;;;;;;2074793;28;20092;-71
2022/08/15 03:28:24;;;;;;;6.65;6.05;;;23.50;97.30;;;;;;2072492;28;20105;-71
2022/08/15 03:29:27;;;;;;;8.18;6.03;;;23.40;97.80;;;;;;2070866;28;20481;-71
2022/08/15 03:30:27;;;;;;;6.65;6.05;;;23.50;97.50;;;;;;2073921;28;20105;-71
2022/08/15 03:31:28;;;;;;;6.90;6.20;;;23.40;96.20;;;;;;2072462;28;20022;-71
2022/08/15 03:32:29;;;;;;;6.38;5.88;;;23.40;96.10;;;;;;2073252;28;20227;-71
2022/08/15 03:33:31;;;;;;;6.53;5.18;;;23.40;95.90;;;;;;2072511;28;20041;-71
2022/08/15 03:34:31;;;;;;;6.43;5.68;;;23.40;96.70;;;;;;2073480;28;20100;-71
2022/08/15 03:35:39;;;;;;;7.57;5.85;;;23.40;97.40;;;;;;2073144;28;20033;-71
2022/08/15 03:36:44;;;;;;;6.32;5.68;;;23.40;97.40;;;;;;2074248;28;20101;-71
2022/08/15 03:37:45;;;;;;;6.43;5.82;;;23.40;97.10;;;;;;2072807;28;20108;-71
2022/08/15 03:38:47;;;;;;;6.45;5.50;;;23.40;97.00;;;;;;2073034;28;20752;-71
2022/08/15 03:39:47;;;;;;;6.15;5.55;;;23.30;97.40;;;;;;2072366;28;20057;-71
2022/08/15 03:40:49;;;;;;;5.90;5.10;;;23.30;96.20;;;;;;2073741;28;20536;-71
2022/08/15 03:41:50;;;;;;;5.88;5.22;;;23.30;96.30;;;;;;2072318;28;20048;-71
2022/08/15 03:42:58;;;;;;;5.57;5.00;;;23.30;95.20;;;;;;2073343;28;20042;-71
2022/08/15 03:43:58;;;;;;;5.82;4.60;;;23.30;95.10;;;;;;2075995;28;20101;-71
2022/08/15 03:45:02;;;;;;;4.75;4.18;;;23.30;95.80;;;;;;2070621;28;20029;-71
2022/08/15 03:46:09;;;;;;;4.70;4.30;;;23.30;95.40;;;;;;2071992;28;20021;-71
2022/08/15 03:47:10;;;;;;;5.25;4.60;;;23.20;94.60;;;;;;2073721;28;20026;-71
2022/08/15 03:48:11;;;;;;;9.57;4.95;;;23.20;94.10;;;;;;2073167;28;20014;-71
2022/08/15 03:49:13;;;;;;;5.28;4.05;;;23.20;93.80;;;;;;2072554;28;20426;-71
2022/08/15 03:50:15;;;;;;;5.63;3.97;;;23.20;93.50;;;;;;2071935;28;20063;-71
2022/08/15 03:51:18;;;;;;;4.35;3.75;;;23.20;92.30;;;;;;2072856;28;20545;-71
2022/08/15 03:52:19;;;;;;;4.32;3.92;;;23.30;93.20;;;;;;2073229;28;20488;-71
2022/08/15 03:53:20;;;;;;;4.93;4.05;;;23.20;93.60;;;;;;2072446;28;20420;-71
2022/08/15 03:54:21;;;;;;;4.97;4.50;;;23.20;93.70;;;;;;2072033;28;20024;-71
2022/08/15 03:55:24;;;;;;;6.82;4.38;;;23.20;93.10;;;;;;2073260;28;20022;-71
2022/08/15 03:56:27;;;;;;;4.82;4.40;;;23.20;92.10;;;;;;2073475;28;20026;-72
2022/08/15 03:57:28;;;;;;;5.30;3.55;;;23.20;92.10;;;;;;2073161;28;20026;-71
2022/08/15 03:58:29;;;;;;;4.05;3.75;;;23.20;92.10;;;;;;2073734;28;20481;-71
2022/08/15 03:59:30;;;;;;;3.90;3.60;;;23.10;92.10;;;;;;2072598;28;20521;-71
2022/08/15 04:00:37;;;;;;;3.88;3.47;;;23.10;91.90;;;;;;2075189;28;20562;-71
2022/08/15 04:01:38;;;;;;;5.10;3.75;;;23.10;92.30;;;;;;2072262;28;20042;-71
2022/08/15 04:02:39;;;;;;;4.00;3.65;;;23.10;92.50;;;;;;2073148;28;20045;-71
2022/08/15 04:03:40;;;;;;;5.55;4.00;;;23.10;92.00;;;;;;2071542;28;20556;-71
2022/08/15 04:04:41;;;;;;;4.57;4.18;;;23.10;92.50;;;;;;2071667;28;20034;-71
2022/08/15 04:05:44;;;;;;;5.10;3.92;;;23.10;91.60;;;;;;2073003;28;20041;-71
2022/08/15 04:06:44;;;;;;;4.63;4.13;;;23.10;91.60;;;;;;2073637;28;20788;-71
2022/08/15 04:07:45;;;;;;;11.43;4.57;;;23.10;91.80;;;;;;2073289;28;20465;-71
2022/08/15 04:08:48;;;;;;;5.25;4.18;;;23.10;92.20;;;;;;2074203;28;20045;-71
2022/08/15 04:09:49;;;;;;;4.72;3.40;;;23.10;91.70;;;;;;2072466;28;20037;-71
2022/08/15 04:10:51;;;;;;;3.47;3.03;;;23.10;91.80;;;;;;2072163;28;20029;-71
2022/08/15 04:11:51;;;;;;;3.95;3.55;;;23.10;91.70;;;;;;2073048;28;20470;-71
2022/08/15 04:12:52;;;;;;;4.43;3.92;;;23.10;91.40;;;;;;2071725;28;20408;-71
2022/08/15 04:13:53;;;;;;;8.15;4.32;;;23.10;91.30;;;;;;2072492;28;20105;-71
2022/08/15 04:14:53;;;;;;;4.13;3.72;;;23.10;91.20;;;;;;2072805;28;20026;-71
2022/08/15 04:15:58;;;;;;;4.15;3.75;;;23.10;90.70;;;;;;2073166;28;20025;-71
2022/08/15 04:16:59;;;;;;;4.47;3.20;;;23.10;91.10;;;;;;2071278;28;20022;-71
2022/08/15 04:18:00;;;;;;;6.28;3.55;;;23.00;91.70;;;;;;2073605;28;20025;-71
2022/08/15 04:19:00;;;;;;;3.83;3.35;;;23.10;92.10;;;;;;2073990;28;20100;-71
2022/08/15 04:20:01;;;;;;;7.25;3.35;;;23.10;92.10;;;;;;2074733;28;20026;-71
2022/08/15 04:21:06;;;;;;;3.95;3.33;;;23.10;92.20;;;;;;2073515;28;20541;-71
2022/08/15 04:22:06;;;;;;;10.32;3.40;;;23.10;92.60;;;;;;2071487;28;20029;-72
2022/08/15 04:23:07;;;;;;;4.22;3.72;;;23.10;93.30;;;;;;2074389;28;20030;-71
2022/08/15 04:24:08;;;;;;;4.82;3.80;;;23.10;93.20;;;;;;2074272;28;20465;-71
2022/08/15 04:25:13;;;;;;;3.22;2.92;;;23.00;92.10;;;;;;2074375;28;20091;-71
2022/08/15 04:26:15;;;;;;;4.38;3.72;;;23.10;92.60;;;;;;2074344;28;20065;-71
2022/08/15 04:27:15;;;;;;;5.25;3.40;;;23.10;92.30;;;;;;2073925;28;20070;-71
2022/08/15 04:28:18;;;;;;;4.40;3.20;;;23.00;92.60;;;;;;2074766;28;20037;-71
2022/08/15 04:29:19;;;;;;;3.60;3.13;;;23.10;92.50;;;;;;2076444;28;20056;-71
2022/08/15 04:30:22;;;;;;;3.38;2.97;;;23.10;92.40;;;;;;2074913;28;20021;-71
2022/08/15 04:31:23;;;;;;;3.50;3.00;;;23.10;92.70;;;;;;2074740;28;20028;-71
2022/08/15 04:32:26;;;;;;;3.80;3.50;;;23.10;92.90;;;;;;2074761;28;20018;-71
2022/08/15 04:33:30;;;;;;;7.00;2.90;;;23.10;93.20;;;;;;2071053;28;20061;-71
2022/08/15 04:34:30;;;;;;;6.68;3.03;;;23.00;92.70;;;;;;2074886;28;20026;-71
2022/08/15 04:35:31;;;;;;;3.03;2.70;;;23.00;92.40;;;;;;2074348;28;20080;-71
2022/08/15 04:36:31;;;;;;;3.53;2.80;;;23.00;92.30;;;;;;2074753;28;20022;-71
2022/08/15 04:37:32;;;;;;;5.38;2.97;;;23.00;92.30;;;;;;2072953;28;20048;-72
2022/08/15 04:38:33;;;;;;;4.40;3.05;;;23.00;92.30;;;;;;2074971;28;20644;-71
2022/08/15 04:39:33;;;;;;;5.07;3.28;;;23.00;92.40;;;;;;2074834;28;20105;-73
2022/08/15 04:40:34;;;;;;;8.88;3.70;;;23.00;92.30;;;;;;2077649;28;20107;-71
2022/08/15 04:41:35;;;;;;;4.20;3.20;;;23.00;92.10;;;;;;2073319;28;20029;-71
2022/08/15 04:42:50;;;;;;;9.75;3.22;;;23.00;92.30;;;;;;2076216;28;20027;-71
2022/08/15 04:43:50;;;;;;;5.30;3.08;;;23.10;92.30;;;;;;2073697;28;20029;-71
2022/08/15 04:44:51;;;;;;;4.35;2.75;;;23.00;92.70;;;;;;2071643;28;20014;-71
2022/08/15 04:45:52;;;;;;;6.95;3.17;;;23.10;92.50;;;;;;2073869;28;20049;-71
2022/08/15 04:46:53;;;;;;;3.63;2.35;;;23.10;92.30;;;;;;2074106;28;20022;-71
2022/08/15 04:47:54;;;;;;;4.38;3.58;;;23.10;92.10;;;;;;2075746;28;20486;-71
2022/08/15 04:48:55;;;;;;;7.63;3.33;;;23.10;91.90;;;;;;2074546;28;20093;-71
2022/08/15 04:49:55;;;;;;;4.75;3.08;;;23.10;91.90;;;;;;2075309;28;20732;-71
2022/08/15 04:50:58;;;;;;;5.28;3.15;;;23.10;91.90;;;;;;2074952;28;20034;-71
2022/08/15 04:52:17;;;;;;;6.45;3.20;;;23.10;91.80;;;;;;2074617;28;20021;-71
2022/08/15 04:53:20;;;;;;;4.40;2.80;;;23.10;91.70;;;;;;2073492;28;20283;-71
2022/08/15 04:54:22;;;;;;;4.07;3.30;;;23.10;91.90;;;;;;2074662;28;20116;-71
2022/08/15 04:55:25;;;;;;;4.80;2.83;;;23.10;91.80;;;;;;2075481;28;20044;-71
2022/08/15 04:56:25;;;;;;;4.22;2.60;;;23.10;91.60;;;;;;2076439;28;20026;-71
2022/08/15 04:57:26;;;;;;;5.32;3.10;;;23.10;91.70;;;;;;2078780;28;20071;-71
2022/08/15 04:58:28;;;;;;;3.50;3.20;;;23.10;91.50;;;;;;2074138;28;20397;-71
2022/08/15 04:59:28;;;;;;;3.35;3.00;;;23.10;91.40;;;;;;2073993;28;20378;-71
2022/08/15 05:00:31;;;;;;;6.63;2.58;;;23.10;91.40;;;;;;2078400;28;20039;-71
2022/08/15 05:01:32;;;;;;;3.42;2.75;;;23.10;91.10;;;;;;2077582;28;20072;-71
2022/08/15 05:02:32;;;;;;;5.80;3.00;;;23.20;91.00;;;;;;2073610;28;20037;-71
2022/08/15 05:03:34;;;;;;;4.95;2.65;;;23.20;90.90;;;;;;2077391;28;20107;-71
2022/08/15 05:04:34;;;;;;;5.15;2.97;;;23.20;90.80;;;;;;2073231;28;20040;-71
2022/08/15 05:05:44;;;;;;;4.55;2.95;;;23.20;90.90;;;;;;2076189;28;20484;-71
2022/08/15 05:06:44;;;;;;;5.50;2.85;;;23.20;90.80;;;;;;2073124;28;20029;-71
2022/08/15 05:07:45;;;;;;;5.25;3.00;;;23.20;91.00;;;;;;2075207;28;20495;-71
2022/08/15 05:08:45;;;;;;;4.88;2.70;;;23.20;90.90;;;;;;2072362;28;20022;-71
2022/08/15 05:09:46;;;;;;;3.55;2.53;;;23.20;90.70;;;;;;2072113;28;20462;-71
2022/08/15 05:11:02;;;;;;;5.82;3.25;;;23.20;90.50;;;;;;2074412;28;20029;-71
2022/08/15 05:12:03;;;;;;;2.85;2.53;;;23.30;90.80;;;;;;2075714;28;20025;-71
2022/08/15 05:13:09;;;;;;;3.60;2.92;;;23.30;90.40;;;;;;2087518;28;20411;-71
2022/08/15 05:14:09;;;;;;;5.63;3.05;;;23.30;90.70;;;;;;2085470;28;20028;-71
2022/08/15 05:15:11;;;;;;;4.95;3.13;;;23.30;90.70;;;;;;2073342;28;20041;-71
2022/08/15 05:16:12;;;;;;;4.78;3.05;;;23.30;90.70;;;;;;2072987;28;20034;-71
2022/08/15 05:17:13;;;;;;;5.43;3.17;;;23.30;90.40;;;;;;2073369;28;20109;-71
2022/08/15 05:18:14;;;;;;;4.32;3.13;;;23.40;90.60;;;;;;2072884;28;20032;-71
2022/08/15 05:19:14;;;;;;;6.53;2.65;;;23.30;90.70;;;;;;2074548;28;20501;-71
2022/08/15 05:20:17;;;;;;;5.68;2.92;;;23.40;90.70;;;;;;2073077;28;20615;-71
2022/08/15 05:21:18;;;;;;;6.22;2.83;;;23.40;90.90;;;;;;2072839;28;20021;-71
2022/08/15 05:22:19;;;;;;;5.97;3.00;;;23.40;90.80;;;;;;2074772;28;20026;-71
2022/08/15 05:23:22;;;;;;;5.88;2.83;;;23.40;90.70;;;;;;2075605;28;20022;-71
2022/08/15 05:24:23;;;;;;;5.45;2.75;;;23.40;90.50;;;;;;2073594;28;20531;-71
2022/08/15 05:25:23;;;;;;;9.00;3.25;;;23.40;90.20;;;;;;2073821;28;20022;-71
2022/08/15 05:26:24;;;;;;;7.35;3.15;;;23.40;90.20;;;;;;2072606;28;20476;-72
2022/08/15 05:27:25;;;;;;;4.22;2.50;;;23.40;90.50;;;;;;2074273;28;20022;-71
2022/08/15 05:28:26;;;;;;;3.28;2.88;;;23.50;90.50;;;;;;2076786;28;20026;-71
2022/08/15 05:29:26;;;;;;;7.80;2.63;;;23.50;90.40;;;;;;2078011;28;20091;-71
2022/08/15 05:30:27;;;;;;;4.82;2.75;;;23.50;90.60;;;;;;2072665;28;20420;-71